Latest Weather Observations for Port Augusta

IDS60801

Issued at 10:01 pm CDT Sunday 19 February 2017 (issued every 30 minutes, with the page automatically refreshed every 10 minutes)

About weather observations | Map of weather stations | Latest weather observations for SA | Other Formats
Station Details ID: 018201 Name: PORT AUGUSTA AERO Lat: -32.51 Lon: 137.72 Height: 13.97 m
Data from the previous 72 hours. | See also: Recent months at Port Augusta
Date/Time
CDT
Temp
°C
App
Temp
°C
Dew
Point
°C
Rel
Hum
%
Delta-T
°C
Wind Press
QNH
hPa
Press
MSL
hPa
Rain since
9am
mm
Dir  Spd
km/h
Gust
km/h
Spd
kts
Gust
kts
19/10:00pm 16.4 12.3 10.0 66 3.4 S 22 30 12 16 1017.8 1017.7 1.2
19/09:30pm 16.3 12.4 10.8 70 2.9 SSE 22 30 12 16 1017.6 1017.5 1.2
19/09:00pm 16.5 13.0 10.8 69 3.0 SSE 20 26 11 14 1017.2 1017.1 1.2
19/08:30pm 16.9 11.7 10.3 65 3.5 SSE 28 37 15 20 1016.9 1016.8 1.2
19/08:00pm 17.5 11.7 9.4 59 4.2 SSE 30 37 16 20 1016.5 1016.4 1.2
19/07:30pm 18.3 12.2 9.9 58 4.5 SSE 32 44 17 24 1016.1 1016.0 1.2
19/07:00pm 19.1 13.1 10.1 56 4.8 SSE 32 39 17 21 1015.9 1015.8 1.2
19/06:30pm 19.4 13.4 10.9 58 4.6 SE 33 44 18 24 1015.7 1015.6 1.2
19/06:00pm 19.1 13.0 11.9 63 4.0 SE 35 46 19 25 1015.7 1015.6 1.2
19/05:30pm 19.3 13.9 10.8 58 4.6 SE 30 43 16 23 1015.8 1015.7 1.2
19/05:00pm 19.0 12.5 11.6 62 4.1 SE 37 46 20 25 1016.1 1016.0 1.2
19/04:45pm 19.5 13.9 10.0 54 5.1 SE 30 48 16 26 1016.0 1015.9 1.2
19/04:30pm 20.0 15.9 12.7 63 4.1 ESE 26 41 14 22 1016.3 1016.2 1.2
19/04:00pm 18.6 14.2 11.7 64 3.8 SE 26 33 14 18 1016.6 1016.5 1.2
19/03:30pm 18.3 13.5 11.6 65 3.7 SE 28 35 15 19 1017.0 1016.9 1.2
19/03:00pm 17.8 14.6 11.4 66 3.5 ESE 19 26 10 14 1017.6 1017.5 1.2
19/02:30pm 17.6 14.0 10.7 64 3.7 SE 20 28 11 15 1017.9 1017.8 1.2
19/02:00pm 16.2 12.6 11.8 75 2.4 SSE 22 30 12 16 1018.2 1018.1 1.2
19/01:30pm 14.3 10.3 11.8 85 1.3 SSE 24 39 13 21 1018.5 1018.4 1.2
19/01:00pm 16.4 15.1 11.3 72 2.7 ESE 9 13 5 7 1018.5 1018.4 1.0
19/12:30pm 15.0 14.2 11.0 77 2.1 SE 6 11 3 6 1019.1 1019.0 1.0
19/12:08pm 13.5 13.1 11.2 86 1.2 SSW 4 7 2 4 1019.4 1019.3 1.0
19/12:00pm 12.9 11.6 11.1 89 0.9 SSE 9 17 5 9 1019.6 1019.5 1.0
19/11:39am 12.8 10.3 11.2 90 0.8 SSE 15 20 8 11 1019.7 1019.6 0.6
19/11:30am 13.0 9.9 11.6 91 0.7 SSE 19 24 10 13 1019.7 1019.6 0.6
19/11:20am 12.8 9.8 10.7 87 1.1 SE 17 26 9 14 1019.7 1019.6 0.4
19/11:19am 12.8 9.7 10.3 85 1.3 SE 17 26 9 14 1019.8 1019.7 0.4
19/11:00am 14.0 13.1 11.2 83 1.5 SSW 7 9 4 5 1019.6 1019.5 0.2
19/10:30am 13.5 11.7 11.0 85 1.3 WSW 11 15 6 8 1019.5 1019.4 0.2
19/10:15am 13.1 11.8 11.2 88 1.0 WSW 9 13 5 7 1019.3 1019.2 0.2
19/10:10am 12.7 11.6 10.8 88 1.0 W 7 13 4 7 1019.3 1019.2 0.2
19/10:00am 11.9 12.0 10.3 90 0.8 CALM 0 6 0 3 1019.4 1019.3 0.2
19/09:48am 11.3 10.1 9.7 90 0.8 SE 6 9 3 5 1019.4 1019.3 0.0
19/09:30am 11.4 9.7 9.8 90 0.8 SE 9 13 5 7 1019.4 1019.3 0.0
19/09:29am 11.3 9.6 9.7 90 0.8 SE 9 13 5 7 1019.4 1019.3 0.0
19/09:00am 11.2 8.8 10.0 92 0.6 SE 13 19 7 10 1019.4 1019.3 3.0
19/08:53am 11.2 8.3 9.8 91 0.7 SSE 15 20 8 11 1019.4 1019.3 2.8
19/08:37am 11.6 9.2 9.9 89 0.9 SSW 13 22 7 12 1019.4 1019.3 2.6
19/08:30am 11.5 9.8 9.9 90 0.8 WSW 9 11 5 6 1019.3 1019.2 2.6
19/08:00am 11.1 9.4 10.0 93 0.6 W 9 13 5 7 1019.0 1018.9 2.6
19/07:45am 10.6 8.8 9.5 93 0.6 WSW 9 13 5 7 1018.9 1018.8 2.4
19/07:37am 10.4 8.2 9.3 93 0.5 SW 11 13 6 7 1019.0 1018.9 2.4
19/07:30am 10.4 7.8 9.3 93 0.5 SSW 13 17 7 9 1019.0 1018.9 2.4
19/07:21am 10.5 7.5 9.4 93 0.5 SSE 15 20 8 11 1019.0 1018.9 2.4
19/07:13am 11.0 7.8 10.1 94 0.5 SE 17 24 9 13 1018.9 1018.8 2.0
19/07:00am 10.7 9.0 9.8 94 0.5 SSE 9 15 5 8 1019.0 1018.9 1.6
19/06:33am 10.5 7.5 9.4 93 0.5 SSE 15 20 8 11 1018.5 1018.4 0.8
19/06:30am 7.3 3.6 6.1 92 0.5 SE 15 20 8 11 1018.5 1018.4 0.8
19/06:26am 7.5 3.4 6.1 91 0.6 SE 17 20 9 11 1018.4 1018.3 0.6
19/06:00am 9.5 6.5 7.8 89 0.8 SE 13 20 7 11 1018.2 1018.1 0.6
19/05:30am 9.7 7.6 8.1 90 0.8 SSE 9 13 5 7 1018.0 1017.9 0.6
19/05:00am 9.1 5.3 7.5 90 0.8 S 17 22 9 12 1018.0 1017.9 0.6
19/04:30am 8.0 4.3 6.3 89 0.8 SSE 15 20 8 11 1018.1 1018.0 0.4
19/04:16am 12.2 9.5 10.4 89 0.9 SSE 15 22 8 12 1018.1 1018.0 0.4
19/04:15am 6.8 2.8 5.1 89 0.7 SSE 15 22 8 12 1018.1 1018.0 0.4
19/04:07am 11.9 9.1 10.1 89 0.9 SSE 15 20 8 11 1018.1 1018.0 0.4
19/04:00am 12.4 9.5 11.0 91 0.7 SSE 17 22 9 12 1018.1 1018.0 0.4
19/03:47am 12.6 9.1 10.8 89 0.9 SE 20 24 11 13 1018.3 1018.2 0.4
19/03:30am 13.6 11.2 11.3 86 1.2 S 15 19 8 10 1018.2 1018.1 0.2
19/03:00am 13.1 11.8 11.2 88 1.0 ESE 9 13 5 7 1018.1 1018.0 0.2
19/02:30am 13.2 9.8 11.4 89 1.0 SSE 20 32 11 17 1018.5 1018.4 0.2
19/02:27am 13.4 9.7 11.5 88 1.0 SSE 22 32 12 17 1018.6 1018.5 0.2
19/02:05am 13.3 8.4 11.4 88 1.0 S 28 41 15 22 1018.6 1018.5 0.0
19/02:00am 13.5 7.8 11.2 86 1.2 SSW 32 41 17 22 1018.7 1018.6 0.0
19/01:30am 16.5 12.2 8.0 57 4.3 SSW 20 28 11 15 1018.4 1018.3 0.0
19/01:00am 16.2 11.2 7.9 58 4.2 S 24 39 13 21 1018.3 1018.2 0.0
19/12:30am 16.7 10.6 6.5 51 5.0 S 28 39 15 21 1018.2 1018.1 0.0
19/12:00am 16.9 12.5 7.3 53 4.8 SSW 20 28 11 15 1018.2 1018.1 0.0
 
Date/Time
CDT
Temp
°C
App
Temp
°C
Dew
Point
°C
Rel
Hum
%
Delta-T
°C
Wind Press
QNH
hPa
Press
MSL
hPa
Rain since
9am
mm
Dir  Spd
km/h
Gust
km/h
Spd
kts
Gust
kts
18/11:30pm 16.9 9.8 6.4 50 5.1 S 33 41 18 22 1018.1 1018.0 0.0
18/11:00pm 16.9 10.1 7.0 52 4.9 SSW 32 46 17 25 1018.1 1018.0 0.0
18/10:30pm 17.2 11.1 6.7 50 5.2 S 28 35 15 19 1017.9 1017.8 0.0
18/10:00pm 17.6 10.5 6.5 48 5.5 S 33 43 18 23 1017.6 1017.5 0.0
18/09:30pm 17.6 13.4 8.2 54 4.8 SSW 20 32 11 17 1017.5 1017.4 0.0
18/09:00pm 17.7 11.4 7.4 51 5.2 S 30 41 16 22 1017.1 1017.0 0.0
18/08:30pm 18.0 10.7 7.4 50 5.3 S 35 48 19 26 1016.6 1016.5 0.0
18/08:00pm 18.4 10.9 7.8 50 5.4 S 37 48 20 26 1016.1 1016.0 0.0
18/07:30pm 19.0 11.5 7.8 48 5.7 S 37 48 20 26 1016.1 1016.0 0.0
18/07:00pm 19.8 11.9 7.9 46 6.1 S 39 50 21 27 1015.9 1015.8 0.0
18/06:30pm 20.1 13.0 8.1 46 6.2 S 35 44 19 24 1015.6 1015.5 0.0
18/06:00pm 20.7 12.2 8.7 46 6.3 SSE 43 52 23 28 1015.3 1015.2 0.0
18/05:30pm 20.8 12.4 8.8 46 6.3 SSE 43 52 23 28 1015.0 1014.9 0.0
18/05:00pm 21.2 14.4 9.1 46 6.4 S 35 52 19 28 1015.2 1015.1 0.0
18/04:30pm 21.5 14.0 9.4 46 6.5 S 39 52 21 28 1015.4 1015.3 0.0
18/04:00pm 22.3 15.0 8.8 42 7.2 S 37 52 20 28 1015.2 1015.1 0.0
18/03:51pm 22.9 16.1 7.1 36 8.2 SSW 32 46 17 25 1015.1 1015.0 0.0
18/03:45pm 24.0 16.9 6.3 32 9.1 S 33 50 18 27 1015.1 1015.0 0.0
18/03:38pm 24.1 17.4 7.3 34 8.8 S 32 50 17 27 1014.8 1014.7 0.0
18/03:30pm 25.0 19.5 5.7 29 9.9 S 24 43 13 23 1015.1 1015.0 0.0
18/03:00pm 25.6 18.5 3.6 24 10.9 SW 30 43 16 23 1015.5 1015.4 0.0
18/02:30pm 25.1 18.8 3.7 25 10.5 WSW 26 39 14 21 1015.9 1015.8 0.0
18/02:00pm 23.8 19.3 4.2 28 9.7 S 17 44 9 24 1016.2 1016.1 0.0
18/01:30pm 22.6 18.2 9.0 42 7.3 SE 22 32 12 17 1016.5 1016.4 0.0
18/01:00pm 24.0 18.7 4.9 29 9.6 SSW 22 30 12 16 1016.8 1016.7 0.0
18/12:30pm 22.2 16.9 10.0 46 6.6 SSE 28 37 15 20 1016.9 1016.8 0.0
18/12:00pm 22.8 16.8 5.3 32 8.7 SSW 26 37 14 20 1017.1 1017.0 0.0
18/11:30am 23.0 16.7 5.9 33 8.6 SSW 28 35 15 19 1017.2 1017.1 0.0
18/11:00am 21.8 15.4 5.3 34 8.2 SSW 28 39 15 21 1017.3 1017.2 0.0
18/10:30am 20.8 14.2 4.4 34 7.9 SSW 28 37 15 20 1017.4 1017.3 0.0
18/10:00am 20.3 13.0 4.4 35 7.7 SSW 32 39 17 21 1017.3 1017.2 0.0
18/09:30am 18.7 11.3 4.8 40 6.7 SSW 33 43 18 23 1017.3 1017.2 0.0
18/09:00am 17.7 10.1 5.6 45 5.9 SSW 35 43 19 23 1017.1 1017.0 0.0
18/08:30am 17.2 10.5 7.5 53 4.9 SSW 32 43 17 23 1016.7 1016.6 0.0
18/08:00am 16.5 11.4 7.7 56 4.4 SSW 24 32 13 17 1016.3 1016.2 0.0
18/07:30am 15.6 9.9 8.4 62 3.6 SW 28 39 15 21 1016.0 1015.9 0.0
18/07:00am 15.5 9.0 8.0 61 3.8 SW 32 43 17 23 1015.6 1015.5 0.0
18/06:30am 15.7 10.2 7.5 58 4.1 SSW 26 35 14 19 1015.4 1015.3 0.0
18/06:00am 15.9 10.6 6.9 55 4.4 SSW 24 33 13 18 1015.1 1015.0 0.0
18/05:30am 16.0 10.7 7.0 55 4.4 SSW 24 30 13 16 1014.9 1014.8 0.0
18/05:00am 16.3 10.4 7.5 56 4.4 SSW 28 39 15 21 1015.1 1015.0 0.0
18/04:30am 16.4 11.3 9.1 62 3.8 SSW 26 39 14 21 1014.9 1014.8 0.0
18/04:00am 16.7 10.8 10.3 66 3.4 SSW 32 43 17 23 1014.7 1014.6 0.0
18/03:30am 16.9 12.5 10.3 65 3.5 SSW 24 33 13 18 1014.7 1014.6 0.0
18/03:00am 17.6 13.4 11.2 66 3.5 S 24 35 13 19 1014.9 1014.8 0.0
18/02:30am 17.8 14.1 11.4 66 3.5 SSW 22 28 12 15 1014.9 1014.8 0.0
18/02:00am 17.8 14.9 12.3 70 3.0 SSW 19 24 10 13 1015.0 1014.9 0.0
18/01:30am 18.0 14.9 12.2 69 3.2 SSW 20 26 11 14 1015.2 1015.1 0.0
18/01:00am 18.5 14.7 12.3 67 3.4 SSW 24 28 13 15 1015.3 1015.2 0.0
18/12:30am 18.8 14.5 12.1 65 3.7 S 26 33 14 18 1015.3 1015.2 0.0
18/12:00am 18.9 15.3 14.2 74 2.7 S 26 33 14 18 1015.2 1015.1 0.0
 
Date/Time
CDT
Temp
°C
App
Temp
°C
Dew
Point
°C
Rel
Hum
%
Delta-T
°C
Wind Press
QNH
hPa
Press
MSL
hPa
Rain since
9am
mm
Dir  Spd
km/h
Gust
km/h
Spd
kts
Gust
kts
17/11:30pm 19.4 15.5 14.4 73 2.9 SSE 28 39 15 21 1015.0 1014.9 0.0
17/11:00pm 19.6 14.0 14.4 72 3.0 SSE 37 48 20 26 1015.2 1015.1 0.0
17/10:30pm 20.1 16.1 14.2 69 3.4 SE 28 37 15 20 1015.2 1015.1 0.0
17/10:00pm 20.3 15.4 14.4 69 3.4 SE 33 43 18 23 1015.0 1014.9 0.0
17/09:30pm 20.5 15.9 13.5 64 4.0 SE 30 39 16 21 1014.4 1014.3 0.0
17/09:00pm 20.9 16.6 13.1 61 4.4 SE 28 37 15 20 1014.3 1014.2 0.0
17/08:30pm 21.1 15.7 12.8 59 4.7 SE 33 43 18 23 1014.0 1013.9 0.0
17/08:00pm 21.7 15.6 11.7 53 5.6 SE 35 46 19 25 1013.5 1013.4 0.0
17/07:30pm 22.4 16.3 11.8 51 6.0 SE 35 48 19 26 1013.2 1013.1 0.0
17/07:00pm 22.8 15.7 10.9 47 6.6 SE 39 50 21 27 1012.8 1012.7 0.0
17/06:30pm 22.7 16.1 12.6 53 5.8 ESE 39 50 21 27 1012.7 1012.6 0.0
17/06:00pm 23.8 17.2 11.5 46 6.9 SE 37 52 20 28 1012.6 1012.5 0.0
17/05:30pm 23.8 17.5 12.4 48 6.5 ESE 37 50 20 27 1012.4 1012.3 0.0
17/05:00pm 24.0 17.8 12.6 49 6.5 ESE 37 50 20 27 1012.4 1012.3 0.0
17/04:30pm 23.5 16.4 12.2 49 6.4 ESE 41 54 22 29 1012.4 1012.3 0.0
17/04:00pm 23.9 16.6 11.6 46 6.9 ESE 41 59 22 32 1012.4 1012.3 0.0
17/03:59pm 24.3 17.4 11.6 45 7.2 ESE 39 59 21 32 1012.3 1012.2 0.0
17/03:30pm 24.2 17.7 12.8 49 6.6 ESE 39 52 21 28 1012.6 1012.5 0.0
17/03:13pm 23.9 18.1 12.8 49 6.4 ESE 35 54 19 29 1012.7 1012.6 0.0
17/03:00pm 24.0 18.3 12.9 50 6.4 ESE 35 46 19 25 1012.9 1012.8 0.0
17/02:30pm 23.9 18.2 11.9 47 6.8 ESE 33 43 18 23 1013.2 1013.1 0.0
17/02:00pm 23.9 17.9 10.9 44 7.2 ESE 33 48 18 26 1013.4 1013.3 0.0
17/01:30pm 23.9 17.2 10.9 44 7.2 ESE 37 56 20 30 1013.5 1013.4 0.0
17/01:23pm 24.1 17.9 11.4 45 7.1 ESE 35 56 19 30 1013.4 1013.3 0.0
17/01:00pm 23.8 18.3 11.8 47 6.8 ESE 32 43 17 23 1013.7 1013.6 0.0
17/12:30pm 22.9 17.4 11.9 50 6.2 ESE 32 44 17 24 1014.0 1013.9 0.0
17/12:00pm 23.8 18.9 12.4 48 6.5 ESE 30 41 16 22 1014.2 1014.1 0.0
17/11:30am 22.2 17.2 12.2 53 5.6 ESE 30 39 16 21 1014.2 1014.1 0.0
17/11:00am 21.8 16.7 11.8 53 5.6 ESE 30 39 16 21 1014.2 1014.1 0.0
17/10:30am 21.4 17.0 11.7 54 5.4 SE 26 37 14 20 1014.2 1014.1 0.0
17/10:00am 21.5 16.4 11.8 54 5.4 SE 30 41 16 22 1014.0 1013.9 0.0
17/09:30am 20.5 15.8 12.0 58 4.7 SE 28 39 15 21 1014.1 1014.0 0.0
17/09:00am 20.1 15.3 11.6 58 4.7 SE 28 37 15 20 1013.9 1013.8 0.0
17/08:30am 19.5 14.3 11.5 60 4.4 SE 30 39 16 21 1013.9 1013.8 0.0
17/08:00am 19.3 14.9 11.8 62 4.1 SE 26 35 14 19 1013.6 1013.5 0.0
17/07:30am 18.1 14.5 11.9 67 3.4 SE 22 28 12 15 1013.1 1013.0 0.0
17/07:00am 17.6 14.0 11.9 69 3.1 SE 22 30 12 16 1012.4 1012.3 0.0
17/06:30am 17.7 14.1 11.7 68 3.3 SE 22 30 12 16 1012.2 1012.1 0.0
17/06:00am 17.6 13.6 11.9 69 3.1 ESE 24 33 13 18 1011.9 1011.8 0.0
17/05:30am 17.8 14.4 12.5 71 2.9 ESE 22 30 12 16 1011.7 1011.6 0.0
17/05:00am 18.3 14.7 13.2 72 2.9 SE 24 33 13 18 1011.3 1011.2 0.0
17/04:30am 18.5 15.5 13.6 73 2.8 SE 22 30 12 16 1011.1 1011.0 0.0
17/04:00am 18.8 16.2 13.9 73 2.8 SE 20 30 11 16 1011.2 1011.1 0.0
17/03:30am 19.0 15.6 13.6 71 3.1 ESE 24 33 13 18 1011.1 1011.0 0.0
17/03:00am 19.5 17.1 14.3 72 3.0 SE 20 28 11 15 1011.2 1011.1 0.0
17/02:30am 19.7 16.5 14.3 71 3.1 SSE 24 32 13 17 1011.3 1011.2 0.0
17/02:00am 19.9 16.0 14.5 71 3.1 SSE 28 35 15 19 1011.5 1011.4 0.0
17/01:30am 20.1 16.2 14.5 70 3.3 SSE 28 35 15 19 1011.6 1011.5 0.0
17/01:00am 20.3 15.9 14.2 68 3.5 S 30 39 16 21 1011.7 1011.6 0.0
17/12:30am 20.5 16.9 14.2 67 3.7 SSE 26 35 14 19 1011.9 1011.8 0.0
17/12:00am 20.7 17.4 14.1 66 3.8 SSE 24 33 13 18 1011.9 1011.8 0.0
 
Date/Time
CDT
Temp
°C
App
Temp
°C
Dew
Point
°C
Rel
Hum
%
Delta-T
°C
Wind Press
QNH
hPa
Press
MSL
hPa
Rain since
9am
mm
Dir  Spd
km/h
Gust
km/h
Spd
kts
Gust
kts
16/11:30pm 20.9 17.7 14.3 66 3.8 S 24 32 13 17 1012.1 1012.0 0.0
16/11:00pm 21.0 17.7 15.1 69 3.5 SSE 26 37 14 20 1012.0 1011.9 0.0
16/10:30pm 21.1 17.9 15.4 70 3.4 SSE 26 35 14 19 1011.9 1011.8 0.0

Other Formats:

Comma delimited format used in spreadsheet applications
http://www.bom.gov.au/fwo/IDS60801/IDS60801.95666.axf

JavaScript Object Notation format (JSON) in row-major order
http://www.bom.gov.au/fwo/IDS60801/IDS60801.95666.json